Time;durP1;ratioP1;P1;durP2;ratioP2;P2;SDS_P1;SDS_P2;PMS_P1;PMS_P2;Temp;Humidity;BMP_temperature;BMP_pressure;BME280_temperature;BME280_humidity;BME280_pressure;Samples;Min_cycle;Max_cycle;Signal;HPM_P1;HPM_P2
2022/09/28 00:01:57;;;;;;;4.10;3.90;;;;;;;7.08;100.00;99046.31;6150816;23;20027;-73
2022/09/28 00:04:24;;;;;;;3.80;3.70;;;;;;;7.36;100.00;99092.31;6121711;23;20037;-74
2022/09/28 00:06:50;;;;;;;3.85;3.67;;;;;;;7.31;100.00;99089.16;6123102;23;20025;-73
2022/09/28 00:09:17;;;;;;;5.47;5.25;;;;;;;7.27;100.00;99088.50;6098873;23;20026;-72
2022/09/28 00:11:44;;;;;;;3.83;3.70;;;;;;;7.25;100.00;99089.56;6121099;23;20021;-72
2022/09/28 00:14:12;;;;;;;4.05;3.85;;;;;;;7.28;100.00;99105.03;6097509;23;20662;-73
2022/09/28 00:16:41;;;;;;;3.92;3.72;;;;;;;7.29;100.00;99083.19;6037421;23;20288;-72
2022/09/28 00:19:09;;;;;;;4.00;3.80;;;;;;;7.17;100.00;99075.22;6095236;23;20040;-73
2022/09/28 00:21:38;;;;;;;3.70;3.60;;;;;;;7.11;100.00;99043.47;6123410;23;20405;-71
2022/09/28 00:24:13;;;;;;;4.07;3.88;;;;;;;6.12;100.00;98863.88;6069350;23;20021;-72
2022/09/28 00:26:43;;;;;;;3.80;3.60;;;;;;;7.31;100.00;99058.66;6117854;23;20092;-71
2022/09/28 00:29:19;;;;;;;3.80;3.60;;;;;;;7.16;100.00;99023.16;6090330;23;20084;-73
2022/09/28 00:31:46;;;;;;;4.00;3.80;;;;;;;6.66;100.00;98939.44;6096328;23;20059;-72
2022/09/28 00:34:14;;;;;;;8.52;3.70;;;;;;;7.23;100.00;99026.19;6093230;23;20029;-72
2022/09/28 00:36:45;;;;;;;3.90;3.70;;;;;;;7.11;100.00;99020.00;6135484;23;20147;-73
2022/09/28 00:39:13;;;;;;;3.63;3.53;;;;;;;7.42;100.00;99060.59;6091879;23;20014;-72
2022/09/28 00:41:41;;;;;;;3.97;3.78;;;;;;;7.43;100.00;99069.25;6105474;23;20040;-72
2022/09/28 00:44:25;;;;;;;4.28;4.00;;;;;;;7.44;100.00;99061.34;6092141;23;20387;-72
2022/09/28 00:47:16;;;;;;;4.40;4.10;;;;;;;7.03;100.00;99012.66;6064029;23;20017;-73
2022/09/28 00:49:51;;;;;;;3.80;3.60;;;;;;;7.41;100.00;99060.69;6122901;23;20021;-71
2022/09/28 00:52:26;;;;;;;4.43;4.22;;;;;;;6.80;100.00;98959.41;6113129;23;20103;-73
2022/09/28 00:54:54;;;;;;;4.30;4.10;;;;;;;7.06;100.00;99009.88;6121291;23;20029;-74
2022/09/28 00:57:21;;;;;;;3.75;3.63;;;;;;;7.30;100.00;99041.34;6062040;23;20041;-74
2022/09/28 00:59:50;;;;;;;4.18;3.97;;;;;;;7.13;100.00;99025.97;6121558;23;20021;-72
2022/09/28 01:02:17;;;;;;;4.03;3.83;;;;;;;7.26;100.00;99042.50;6101013;23;20017;-72
2022/09/28 01:04:43;;;;;;;4.30;4.10;;;;;;;5.94;100.00;98839.78;6068460;23;20014;-74
2022/09/28 01:07:11;;;;;;;3.83;3.63;;;;;;;6.47;100.00;98937.16;6125608;23;20058;-73
2022/09/28 01:09:39;;;;;;;3.75;3.65;;;;;;;6.87;100.00;98993.72;6118418;23;20083;-73
2022/09/28 01:12:06;;;;;;;3.75;3.65;;;;;;;6.58;100.00;98971.19;6127040;23;20029;-73
2022/09/28 01:14:33;;;;;;;4.18;3.97;;;;;;;6.49;100.00;98943.09;6121608;23;20022;-73
2022/09/28 01:17:12;;;;;;;4.30;4.10;;;;;;;6.83;100.00;98995.69;6148381;23;20706;-73
2022/09/28 01:20:04;;;;;;;4.10;3.90;;;;;;;7.12;100.00;99042.56;6125299;23;20082;-73
2022/09/28 01:22:33;;;;;;;3.90;3.75;;;;;;;7.15;100.00;99045.78;6154088;23;20033;-72
2022/09/28 01:25:18;;;;;;;4.10;3.90;;;;;;;7.18;100.00;99045.59;6122039;23;20029;-74
2022/09/28 01:27:56;;;;;;;3.92;3.72;;;;;;;7.15;100.00;99043.16;6147683;23;20029;-73
2022/09/28 01:30:22;;;;;;;3.50;3.40;;;;;;;7.07;100.00;99032.41;6122436;23;20696;-71
2022/09/28 01:33:04;;;;;;;3.97;3.78;;;;;;;6.85;100.00;98993.00;6148170;23;20570;-72
2022/09/28 01:35:39;;;;;;;3.80;3.70;;;;;;;7.07;100.00;99040.22;6120853;23;20341;-72
2022/09/28 01:38:24;;;;;;;3.83;3.63;;;;;;;6.13;100.00;98899.38;6148931;23;20010;-72
2022/09/28 01:40:51;;;;;;;4.43;3.88;;;;;;;6.81;100.00;99013.22;6120121;23;20021;-73
2022/09/28 01:43:26;;;;;;;7.35;6.95;;;;;;;6.64;100.00;98995.22;6084520;23;20017;-74
2022/09/28 01:46:01;;;;;;;4.35;4.15;;;;;;;6.18;100.00;98920.78;6102828;23;20029;-72
2022/09/28 01:48:36;;;;;;;3.95;3.75;;;;;;;6.43;100.00;98966.13;6116052;23;20210;-73
2022/09/28 01:51:07;;;;;;;4.05;3.85;;;;;;;6.25;100.00;98960.28;6120678;23;20016;-73
2022/09/28 01:53:39;;;;;;;4.00;3.80;;;;;;;6.83;100.00;99032.19;6127871;23;20009;-73
2022/09/28 01:56:16;;;;;;;3.72;3.63;;;;;;;5.86;100.00;98863.69;6124924;23;20017;-73
2022/09/28 01:58:53;;;;;;;3.78;3.63;;;;;;;6.82;100.00;99014.91;6155610;23;20029;-73
2022/09/28 02:01:33;;;;;;;3.53;3.42;;;;;;;6.88;100.00;99030.16;6119770;23;20017;-73
2022/09/28 02:04:10;;;;;;;3.67;3.58;;;;;;;6.14;100.00;98904.50;6079951;23;20037;-73
2022/09/28 02:07:00;;;;;;;4.20;4.00;;;;;;;5.94;100.00;98871.03;6146602;23;20029;-73
2022/09/28 02:09:45;;;;;;;4.10;3.90;;;;;;;6.71;100.00;98976.47;6098855;23;20018;-73
2022/09/28 02:12:16;;;;;;;3.75;3.63;;;;;;;7.07;100.00;99028.97;6121149;23;20037;-74
2022/09/28 02:14:48;;;;;;;3.78;3.58;;;;;;;5.90;100.00;98833.09;6097605;23;20025;-73
2022/09/28 02:17:15;;;;;;;3.60;3.50;;;;;;;7.13;100.00;99018.13;6124679;23;20013;-73
2022/09/28 02:19:42;;;;;;;3.72;3.53;;;;;;;6.46;100.00;98908.63;6070334;23;20091;-73
2022/09/28 02:22:24;;;;;;;4.13;3.92;;;;;;;6.74;100.00;98931.97;6118415;23;20076;-72
2022/09/28 02:25:32;;;;;;;4.00;3.80;;;;;;;6.97;100.00;98963.50;6096234;23;20596;-73
2022/09/28 02:28:01;;;;;;;4.05;3.85;;;;;;;6.98;100.00;98963.41;6006099;23;20187;-73
2022/09/28 02:30:32;;;;;;;4.05;3.85;;;;;;;7.03;100.00;98970.94;5953814;23;20056;-72
2022/09/28 02:33:07;;;;;;;4.38;4.18;;;;;;;7.16;100.00;98989.25;6058669;23;20037;-72
2022/09/28 02:35:34;;;;;;;3.80;3.60;;;;;;;7.49;100.00;99027.09;6096904;23;20549;-72
2022/09/28 02:38:01;;;;;;;4.05;3.85;;;;;;;6.33;100.00;98841.63;6124802;23;20034;-72
2022/09/28 02:40:30;;;;;;;4.22;4.03;;;;;;;7.27;100.00;98976.31;6071403;23;20010;-71
2022/09/28 02:43:22;;;;;;;3.70;3.60;;;;;;;7.53;100.00;99021.56;6123157;23;20025;-73
2022/09/28 02:46:00;;;;;;;4.35;4.15;;;;;;;7.55;100.00;99019.69;6065451;23;20878;-73
2022/09/28 02:48:58;;;;;;;4.07;3.88;;;;;;;7.57;100.00;99016.97;6117693;23;20012;-72
2022/09/28 02:52:22;;;;;;;4.40;4.10;;;;;;;7.58;100.00;99022.09;6080041;23;20055;-73
2022/09/28 02:54:56;;;;;;;4.53;4.32;;;;;;;7.61;100.00;99015.81;6121963;23;20025;-73
2022/09/28 02:57:47;;;;;;;4.20;4.00;;;;;;;7.61;100.00;99023.66;6094460;23;20073;-72
2022/09/28 03:00:19;;;;;;;4.53;4.30;;;;;;;7.59;100.00;99023.75;6088916;23;20028;-73
2022/09/28 03:03:04;;;;;;;5.65;5.15;;;;;;;7.59;100.00;99021.16;6125823;23;20025;-71
2022/09/28 03:05:46;;;;;;;4.57;4.32;;;;;;;7.21;100.00;98955.03;6087115;23;20041;-72
2022/09/28 03:08:41;;;;;;;4.43;4.22;;;;;;;7.61;100.00;99021.06;6124510;23;20165;-74
2022/09/28 03:11:21;;;;;;;3.90;3.70;;;;;;;7.63;100.00;99021.78;6109341;23;20041;-72
2022/09/28 03:13:49;;;;;;;4.32;4.13;;;;;;;7.62;100.00;99020.13;6147736;23;20043;-72
2022/09/28 03:16:18;;;;;;;4.22;4.00;;;;;;;7.19;100.00;98952.50;6123923;23;20037;-72
2022/09/28 03:18:46;;;;;;;5.28;4.97;;;;;;;7.65;100.00;99024.31;6153838;23;20017;-72
2022/09/28 03:21:14;;;;;;;4.75;4.45;;;;;;;7.66;100.00;99029.44;6123084;23;20043;-72
2022/09/28 03:23:41;;;;;;;4.25;4.05;;;;;;;6.87;100.00;98895.47;6152620;23;20301;-75
2022/09/28 03:26:10;;;;;;;4.30;4.10;;;;;;;7.73;100.00;99032.44;6122180;23;20025;-72
2022/09/28 03:28:37;;;;;;;4.63;4.32;;;;;;;6.45;100.00;98823.53;6154252;23;20025;-74
2022/09/28 03:31:03;;;;;;;4.47;4.28;;;;;;;7.38;100.00;98983.44;6112198;23;20068;-73
2022/09/28 03:33:30;;;;;;;4.60;4.30;;;;;;;7.49;100.00;99004.44;6145395;23;20009;-72
2022/09/28 03:35:56;;;;;;;4.93;4.63;;;;;;;6.69;100.00;98853.19;6112775;23;20078;-72
2022/09/28 03:38:23;;;;;;;4.95;4.65;;;;;;;7.37;100.00;98973.94;6149566;23;20037;-72
2022/09/28 03:40:54;;;;;;;5.15;4.85;;;;;;;7.04;100.00;98920.47;6096821;23;20077;-72
2022/09/28 03:43:21;;;;;;;4.68;4.47;;;;;;;7.79;100.00;99039.88;6151465;23;20029;-72
2022/09/28 03:46:05;;;;;;;4.65;4.35;;;;;;;7.78;100.00;99025.97;6099067;23;20044;-72
2022/09/28 03:48:34;;;;;;;4.50;4.30;;;;;;;7.78;100.00;99030.38;6134801;23;20025;-72
2022/09/28 03:51:08;;;;;;;5.05;4.75;;;;;;;7.10;100.00;98912.22;6111949;23;20001;-72
2022/09/28 03:53:35;;;;;;;5.13;4.82;;;;;;;7.12;100.00;98923.41;6126566;23;20068;-73
2022/09/28 03:56:06;;;;;;;5.10;4.63;;;;;;;7.69;100.00;99010.09;6122467;23;20341;-72
2022/09/28 03:58:32;;;;;;;5.13;4.72;;;;;;;7.40;100.00;98963.31;6152918;23;20040;-71
2022/09/28 04:01:07;;;;;;;5.07;4.68;;;;;;;7.19;100.00;98914.19;6121983;23;20568;-72
2022/09/28 04:03:41;;;;;;;4.38;4.18;;;;;;;7.04;100.00;98899.59;6146391;23;20037;-73
2022/09/28 04:06:08;;;;;;;4.30;4.05;;;;;;;7.41;100.00;98974.56;6114808;23;20090;-74
2022/09/28 04:08:34;;;;;;;5.35;5.00;;;;;;;7.51;100.00;98986.88;6146888;23;20074;-74
2022/09/28 04:11:01;;;;;;;7.70;4.50;;;;;;;7.80;100.00;99015.44;6121074;23;20033;-73
2022/09/28 04:13:28;;;;;;;5.88;5.47;;;;;;;7.80;100.00;99018.06;6149313;23;20013;-74
2022/09/28 04:15:57;;;;;;;5.22;4.93;;;;;;;7.64;100.00;98999.97;6123040;23;20181;-72
2022/09/28 04:18:24;;;;;;;5.38;4.97;;;;;;;7.73;100.00;99022.00;6151244;23;20074;-74
2022/09/28 04:21:05;;;;;;;6.18;5.68;;;;;;;7.77;100.00;99026.09;6120191;23;20018;-75
2022/09/28 04:23:34;;;;;;;5.45;4.95;;;;;;;7.77;100.00;99023.47;6125498;23;20021;-74
2022/09/28 04:26:01;;;;;;;5.18;4.88;;;;;;;7.77;100.00;99020.84;6095729;23;20009;-72
2022/09/28 04:31:18;;;;;;;4.93;4.63;;;;;;;7.71;100.00;99029.09;6119793;23;20017;-72
2022/09/28 04:33:44;;;;;;;5.43;5.03;;;;;;;7.69;100.00;99025.75;6151171;23;20107;-72
2022/09/28 04:36:11;;;;;;;5.57;5.18;;;;;;;7.08;100.00;98937.56;6123841;23;20298;-72
2022/09/28 04:38:38;;;;;;;5.72;5.35;;;;;;;7.65;100.00;99043.41;6151649;23;20086;-73
2022/09/28 04:41:19;;;;;;;4.82;4.43;;;;;;;7.40;100.00;98994.63;6098512;23;20026;-74
2022/09/28 04:43:46;;;;;;;4.65;4.45;;;;;;;7.61;100.00;99026.28;6155251;23;20051;-73
2022/09/28 04:46:13;;;;;;;4.95;4.65;;;;;;;6.93;100.00;98931.56;6126232;23;20051;-71
2022/09/28 04:48:40;;;;;;;5.15;4.85;;;;;;;7.16;100.00;98965.78;6156366;23;20065;-73
2022/09/28 04:51:06;;;;;;;4.50;4.20;;;;;;;7.52;100.00;99025.13;6126191;23;20017;-72
2022/09/28 04:53:33;;;;;;;5.05;4.75;;;;;;;6.88;100.00;98945.88;6155867;23;20024;-72
2022/09/28 04:56:26;;;;;;;4.82;4.53;;;;;;;7.44;100.00;99032.63;6126096;23;20017;-75
2022/09/28 04:58:53;;;;;;;5.03;4.72;;;;;;;7.27;100.00;99007.63;6153019;23;20097;-71
2022/09/28 05:01:22;;;;;;;4.50;4.30;;;;;;;7.45;100.00;99029.06;6127124;23;20073;-72
2022/09/28 05:03:49;;;;;;;4.50;4.30;;;;;;;6.97;100.00;98940.03;6154940;23;20028;-73
2022/09/28 05:06:16;;;;;;;5.30;5.00;;;;;;;7.00;100.00;98947.69;6125052;23;20505;-72
2022/09/28 05:08:45;;;;;;;4.78;4.47;;;;;;;7.18;100.00;98975.16;6097729;23;20010;-73
2022/09/28 05:11:12;;;;;;;5.13;3.90;;;;;;;7.05;100.00;98958.63;6151306;23;20078;-73
2022/09/28 05:13:44;;;;;;;5.22;4.93;;;;;;;6.77;100.00;98917.88;6099839;23;20097;-72
2022/09/28 05:16:14;;;;;;;5.15;4.70;;;;;;;7.46;100.00;99017.69;6152367;23;20013;-72
2022/09/28 05:18:41;;;;;;;4.95;4.65;;;;;;;7.42;100.00;99026.69;6124807;23;20016;-72
2022/09/28 05:21:12;;;;;;;6.25;4.53;;;;;;;7.42;100.00;99028.41;6146671;23;20013;-72
2022/09/28 05:23:44;;;;;;;4.88;4.57;;;;;;;7.37;100.00;99032.16;6124900;23;20021;-73
2022/09/28 05:26:10;;;;;;;4.30;4.10;;;;;;;7.38;100.00;99033.03;6151731;23;20021;-72
2022/09/28 05:28:39;;;;;;;5.07;4.30;;;;;;;7.33;100.00;99024.66;6131737;23;20017;-73
2022/09/28 05:31:05;;;;;;;4.22;4.03;;;;;;;7.30;100.00;99032.69;6147768;23;20020;-72
2022/09/28 05:33:32;;;;;;;4.38;4.07;;;;;;;7.03;100.00;98983.16;6122168;23;20021;-72
2022/09/28 05:35:59;;;;;;;4.60;4.30;;;;;;;6.98;100.00;98983.47;6144198;23;20659;-74
2022/09/28 05:38:28;;;;;;;5.10;4.82;;;;;;;6.87;100.00;98954.63;6123481;23;20029;-71
2022/09/28 05:40:55;;;;;;;4.35;4.15;;;;;;;7.26;100.00;99012.97;6091089;23;20080;-74
2022/09/28 05:43:21;;;;;;;4.88;4.47;;;;;;;7.42;100.00;99037.13;6152944;23;20113;-73
2022/09/28 05:45:48;;;;;;;4.25;4.05;;;;;;;6.87;100.00;98947.63;6094288;23;20052;-72
2022/09/28 05:48:20;;;;;;;;;;;;;;;7.48;100.00;99044.53;6123022;23;20020;-73
2022/09/28 05:50:53;;;;;;;4.68;4.43;;;;;;;7.52;100.00;99046.00;6122815;23;19921;-71
2022/09/28 05:53:19;;;;;;;4.20;3.90;;;;;;;6.57;100.00;98903.53;6118531;23;20461;-71
2022/09/28 05:55:45;;;;;;;4.60;4.30;;;;;;;7.55;100.00;99045.78;6122099;23;20022;-72
2022/09/28 05:58:12;;;;;;;4.22;4.03;;;;;;;7.16;100.00;98989.25;6151725;23;20017;-72
2022/09/28 06:00:39;;;;;;;4.00;3.80;;;;;;;7.51;100.00;99038.28;6118113;23;20047;-72
2022/09/28 06:03:09;;;;;;;5.13;4.82;;;;;;;7.43;100.00;99017.88;6093775;23;20688;-72
2022/09/28 06:05:38;;;;;;;5.32;4.97;;;;;;;7.64;100.00;99046.09;6157182;23;20504;-73
2022/09/28 06:08:07;;;;;;;4.95;4.70;;;;;;;7.46;100.00;99016.88;6125408;23;20028;-73
2022/09/28 06:10:33;;;;;;;4.05;3.85;;;;;;;7.70;100.00;99056.16;6152668;23;20464;-73
2022/09/28 06:13:00;;;;;;;5.05;4.75;;;;;;;7.71;100.00;99050.81;6095097;23;20030;-73
2022/09/28 06:15:31;;;;;;;4.00;3.80;;;;;;;6.99;100.00;98944.22;6152297;23;20042;-73
2022/09/28 06:18:03;;;;;;;4.03;3.83;;;;;;;7.81;100.00;99056.28;6095689;23;20033;-71
2022/09/28 06:20:31;;;;;;;;;;;;;;;7.81;100.00;99050.22;6133709;23;20081;-73
2022/09/28 06:22:57;;;;;;;4.22;3.92;;;;;;;7.01;100.00;98944.13;6118551;23;20359;-73
2022/09/28 06:25:26;;;;;;;3.90;3.70;;;;;;;7.15;100.00;98941.44;6153884;23;20020;-73
2022/09/28 06:28:04;;;;;;;4.63;4.32;;;;;;;7.88;100.00;99054.94;6122550;23;20191;-73
2022/09/28 06:30:33;;;;;;;4.07;3.88;;;;;;;7.48;100.00;99004.56;6116953;23;20021;-74
2022/09/28 06:33:01;;;;;;;4.30;4.10;;;;;;;7.85;100.00;99049.06;6091144;23;20014;-73
2022/09/28 06:35:29;;;;;;;4.22;4.03;;;;;;;7.99;100.00;99065.47;6140146;23;20017;-73
2022/09/28 06:37:56;;;;;;;4.70;4.40;;;;;;;7.09;100.00;98914.94;6119881;23;20017;-73
2022/09/28 06:40:23;;;;;;;3.90;3.70;;;;;;;7.70;100.00;99011.78;6088876;23;20021;-72
2022/09/28 06:42:58;;;;;;;5.03;4.63;;;;;;;7.30;100.00;98938.75;6122668;23;20090;-73
2022/09/28 06:45:26;;;;;;;4.15;3.95;;;;;;;7.97;100.00;99040.41;6135113;23;20074;-73
2022/09/28 06:47:59;;;;;;;5.07;4.75;;;;;;;8.03;100.00;99039.16;6117642;23;21410;-72
2022/09/28 06:50:31;;;;;;;4.80;4.50;;;;;;;8.34;100.00;99088.38;6143991;23;20082;-72
2022/09/28 06:52:59;;;;;;;4.43;4.22;;;;;;;8.38;100.00;99091.63;6121475;23;20016;-73
2022/09/28 06:55:26;;;;;;;4.28;3.97;;;;;;;8.38;100.00;99092.44;6146522;23;20095;-72
2022/09/28 06:58:01;;;;;;;4.45;4.25;;;;;;;7.55;100.00;98967.47;6094184;23;20082;-72
2022/09/28 07:00:30;;;;;;;4.57;4.28;;;;;;;8.23;100.00;99071.75;6091257;23;20014;-73
2022/09/28 07:02:57;;;;;;;4.95;4.63;;;;;;;8.29;100.00;99084.41;6117689;23;20672;-73
2022/09/28 07:05:26;;;;;;;4.80;4.50;;;;;;;8.41;100.00;99095.78;6086746;23;20025;-73
2022/09/28 07:07:54;;;;;;;4.85;4.55;;;;;;;7.58;100.00;99011.66;6145094;23;20081;-76
2022/09/28 07:10:22;;;;;;;4.32;4.05;;;;;;;8.03;100.00;99039.16;6117891;23;20025;-74
2022/09/28 07:12:50;;;;;;;4.57;4.38;;;;;;;8.44;100.00;99093.84;6089596;23;20684;-74
2022/09/28 07:15:17;;;;;;;4.43;4.22;;;;;;;8.26;100.00;99061.06;6144360;23;20021;-73
2022/09/28 07:17:44;;;;;;;4.75;4.47;;;;;;;7.97;100.00;98978.53;6116912;23;20037;-73
2022/09/28 07:20:26;;;;;;;4.40;4.18;;;;;;;8.62;100.00;99096.97;6146748;23;20028;-73
2022/09/28 07:22:58;;;;;;;4.22;4.03;;;;;;;8.90;100.00;99119.41;6116439;23;20021;-73
2022/09/28 07:25:46;;;;;;;4.35;4.15;;;;;;;8.96;100.00;99139.03;6142162;23;20537;-73
2022/09/28 07:28:14;;;;;;;4.80;4.60;;;;;;;8.61;100.00;99047.38;6117921;23;20195;-74
2022/09/28 07:30:42;;;;;;;4.20;4.00;;;;;;;9.12;100.00;99123.94;6087446;23;20018;-74
2022/09/28 07:33:11;;;;;;;5.80;5.38;;;;;;;8.78;100.00;99055.69;6117487;23;20106;-73
2022/09/28 07:35:38;;;;;;;4.95;4.65;;;;;;;8.93;100.00;99076.47;6089732;23;20030;-73
2022/09/28 07:38:06;;;;;;;4.57;4.30;;;;;;;8.76;100.00;99015.75;6142811;23;20016;-73
2022/09/28 07:43:20;;;;;;;5.10;4.82;;;;;;;9.16;100.00;99051.25;6134148;23;20012;-73
2022/09/28 07:45:52;;;;;;;5.50;4.97;;;;;;;9.04;100.00;99055.63;6090393;23;20038;-72
2022/09/28 07:48:20;;;;;;;4.82;4.50;;;;;;;9.31;100.00;99075.50;6146782;23;20036;-72
2022/09/28 07:50:49;;;;;;;5.28;4.97;;;;;;;9.14;100.00;99037.44;6117410;23;20033;-72
2022/09/28 07:53:15;;;;;;;5.23;4.80;;;;;;;9.75;100.00;99115.91;6145456;23;20017;-73
2022/09/28 07:55:41;;;;;;;5.05;4.70;;;;;;;10.07;100.00;99144.13;6089269;23;20022;-73
2022/09/28 07:58:08;;;;;;;5.18;4.93;;;;;;;10.25;100.00;99140.09;6114409;23;20025;-74
2022/09/28 08:00:34;;;;;;;7.32;4.57;;;;;;;9.50;100.00;99005.13;6089376;23;20029;-73
2022/09/28 08:03:01;;;;;;;5.10;4.90;;;;;;;9.85;100.00;99067.09;6144404;23;20699;-72
2022/09/28 08:05:30;;;;;;;5.20;4.80;;;;;;;9.68;100.00;99026.47;6106659;23;20022;-74
2022/09/28 08:07:58;;;;;;;5.13;4.90;;;;;;;10.35;100.00;99117.50;6142441;23;20032;-72
2022/09/28 08:10:25;;;;;;;5.00;4.70;;;;;;;10.41;100.00;99102.25;6107807;23;20041;-73
2022/09/28 08:12:56;;;;;;;5.20;4.90;;;;;;;10.49;100.00;99098.09;6085834;23;20010;-73
2022/09/28 08:15:28;;;;;;;4.95;4.65;;;;;;;10.68;100.00;99139.44;6109095;23;20014;-72
2022/09/28 08:17:55;;;;;;;5.10;4.80;;;;;;;9.71;100.00;98997.41;6086639;23;20014;-73
2022/09/28 08:23:17;;;;;;;5.00;4.70;;;;;;;10.54;100.00;99097.72;6137822;23;20105;-73
2022/09/28 08:25:47;;;;;;;5.45;5.10;;;;;;;10.93;100.00;99166.44;6109026;23;20034;-74
2022/09/28 08:28:18;;;;;;;5.72;5.32;;;;;;;9.98;100.00;99028.56;6136058;23;20020;-76
2022/09/28 08:30:46;;;;;;;5.78;4.85;;;;;;;10.01;100.00;99058.09;6106696;23;20537;-73
2022/09/28 08:33:14;;;;;;;5.57;5.18;;;;;;;10.12;100.00;99077.28;6110207;23;20088;-73
2022/09/28 08:35:41;;;;;;;5.22;4.93;;;;;;;10.49;100.00;99139.22;6104772;23;20021;-73
2022/09/28 08:38:08;;;;;;;5.10;4.80;;;;;;;9.62;100.00;98994.66;6139276;23;20024;-73
2022/09/28 08:40:43;;;;;;;4.93;4.70;;;;;;;10.63;100.00;99136.38;6110310;23;20037;-73
2022/09/28 08:43:44;;;;;;;5.43;5.13;;;;;;;10.72;100.00;99151.41;6138433;23;20675;-72
2022/09/28 08:46:13;;;;;;;5.53;5.03;;;;;;;10.97;100.00;99179.19;6104103;23;20086;-71
2022/09/28 08:49:06;;;;;;;4.95;4.68;;;;;;;11.27;100.00;99182.16;6140348;23;20033;-71
2022/09/28 08:52:02;;;;;;;4.75;4.55;;;;;;;11.44;100.00;99196.56;6095670;23;20098;-73
2022/09/28 08:55:07;;;;;;;4.72;4.40;;;;;;;11.32;100.00;99188.69;6135214;23;20029;-73
2022/09/28 08:57:56;;;;;;;4.57;4.38;;;;;;;11.34;100.00;99185.94;6031938;23;20014;-72
2022/09/28 09:00:46;;;;;;;4.80;4.50;;;;;;;11.47;100.00;99193.69;6058582;23;20035;-72
2022/09/28 09:03:17;;;;;;;5.55;5.25;;;;;;;11.64;100.00;99197.59;6070464;23;20025;-71
2022/09/28 09:06:09;;;;;;;4.90;4.60;;;;;;;10.99;100.00;99092.44;6102277;23;20139;-72
2022/09/28 09:08:55;;;;;;;5.30;4.80;;;;;;;11.61;100.00;99193.41;6109507;23;20025;-73
2022/09/28 09:11:30;;;;;;;5.00;4.80;;;;;;;11.73;100.00;99199.47;6139309;23;20364;-72
2022/09/28 09:14:14;;;;;;;4.75;4.55;;;;;;;11.83;100.00;99237.19;6109953;23;20042;-72
2022/09/28 09:17:13;;;;;;;4.97;4.60;;;;;;;12.00;100.00;99217.44;6141394;23;20023;-73
2022/09/28 09:19:48;;;;;;;5.03;4.72;;;;;;;11.07;100.00;99084.78;6108464;23;20616;-74
2022/09/28 09:22:22;;;;;;;5.00;4.80;;;;;;;12.05;100.00;99214.44;6138462;23;21143;-74
2022/09/28 09:24:53;;;;;;;5.10;4.80;;;;;;;11.97;100.00;99181.72;6102056;23;20022;-73
2022/09/28 09:27:19;;;;;;;5.10;4.90;;;;;;;11.93;100.00;99214.47;6139286;23;20029;-74
2022/09/28 09:30:13;;;;;;;5.85;5.35;;;;;;;11.85;100.00;99213.41;6111287;23;20036;-74
2022/09/28 09:32:55;;;;;;;5.35;5.05;;;;;;;11.30;100.00;99135.44;6137095;23;20025;-74
2022/09/28 09:35:36;;;;;;;5.85;4.82;;;;;;;11.93;100.00;99221.53;6109626;23;20033;-73
2022/09/28 09:38:22;;;;;;;4.93;4.72;;;;;;;12.00;100.00;99227.94;6137899;23;20029;-74
2022/09/28 09:41:24;;;;;;;5.38;5.03;;;;;;;12.32;100.00;99225.28;6108288;23;20005;-75
2022/09/28 09:44:18;;;;;;;5.20;4.90;;;;;;;12.23;100.00;99183.13;6137537;23;20342;-73
2022/09/28 09:47:06;;;;;;;5.15;4.85;;;;;;;12.37;99.02;99185.47;6109169;23;20029;-75
2022/09/28 09:49:35;;;;;;;5.15;4.90;;;;;;;12.81;97.23;99237.94;6139164;23;20032;-74
2022/09/28 09:52:20;;;;;;;5.00;4.80;;;;;;;13.10;97.07;99243.34;6107804;23;20083;-74
2022/09/28 09:54:53;;;;;;;5.70;5.18;;;;;;;13.04;95.93;99172.78;6121586;23;20044;-75
2022/09/28 09:57:25;;;;;;;;;;;;;;;13.56;93.33;99228.84;6111029;23;20029;-74
2022/09/28 09:59:52;;;;;;;11.43;5.45;;;;;;;13.38;93.31;99201.47;6138319;23;20433;-74
2022/09/28 10:02:26;;;;;;;5.35;5.15;;;;;;;13.59;91.48;99190.81;6097153;23;20032;-75
2022/09/28 10:04:58;;;;;;;5.13;4.82;;;;;;;13.22;91.47;99181.69;6138798;23;20021;-75
2022/09/28 10:07:38;;;;;;;5.07;4.80;;;;;;;11.90;92.56;99061.44;6109493;23;20021;-74
2022/09/28 10:10:16;;;;;;;4.93;4.70;;;;;;;12.60;95.18;99180.88;6109652;23;20025;-74
2022/09/28 10:12:43;;;;;;;4.95;4.75;;;;;;;12.60;94.08;99216.91;6079223;23;20045;-74
2022/09/28 10:15:15;;;;;;;5.20;4.90;;;;;;;12.89;92.22;99232.84;6084544;23;20036;-74
2022/09/28 10:17:41;;;;;;;5.72;5.22;;;;;;;11.53;92.66;98991.72;6080579;23;20037;-74
2022/09/28 10:20:13;;;;;;;4.80;4.60;;;;;;;13.21;92.33;99232.72;6106592;23;20534;-75
2022/09/28 10:22:40;;;;;;;4.82;4.53;;;;;;;13.23;93.72;99235.22;6079327;23;20063;-74
2022/09/28 10:25:08;;;;;;;5.55;5.03;;;;;;;13.01;93.90;99213.38;6109123;23;20029;-75
2022/09/28 10:27:40;;;;;;;5.47;5.18;;;;;;;13.10;92.35;99230.19;6079543;23;20033;-74
2022/09/28 10:30:07;;;;;;;5.18;4.88;;;;;;;13.14;92.91;99227.13;6109534;23;20017;-74
2022/09/28 10:32:42;;;;;;;5.40;5.10;;;;;;;13.29;91.20;99234.69;6077847;23;20029;-74
2022/09/28 10:35:17;;;;;;;5.47;5.07;;;;;;;13.40;92.60;99239.06;6110400;23;20025;-74
2022/09/28 10:37:55;;;;;;;5.40;5.10;;;;;;;13.67;89.64;99238.41;6078280;23;20638;-74
2022/09/28 10:40:39;;;;;;;4.95;4.70;;;;;;;14.00;88.89;99242.50;6111387;23;20033;-73
2022/09/28 10:43:28;;;;;;;5.10;4.80;;;;;;;13.99;87.13;99238.19;6088898;23;20654;-73
2022/09/28 10:46:05;;;;;;;5.00;4.80;;;;;;;13.75;86.92;99191.97;6123491;23;20021;-73
2022/09/28 10:48:51;;;;;;;4.60;4.40;;;;;;;14.00;89.65;99244.31;6072102;23;20009;-74
2022/09/28 10:51:17;;;;;;;5.30;5.00;;;;;;;14.23;86.30;99245.72;6102818;23;22027;-72
2022/09/28 10:53:59;;;;;;;4.82;4.63;;;;;;;14.42;85.13;99234.31;6107838;23;20036;-75
2022/09/28 10:56:28;;;;;;;5.68;4.90;;;;;;;14.30;84.85;99215.13;6126663;23;20036;-73
2022/09/28 10:58:55;;;;;;;5.50;5.20;;;;;;;14.17;83.74;99243.59;6096266;23;20059;-73
2022/09/28 11:01:27;;;;;;;5.00;4.70;;;;;;;13.61;85.57;99166.00;6098295;23;20029;-73
2022/09/28 11:04:02;;;;;;;5.00;4.80;;;;;;;13.32;87.27;99171.22;6093865;23;20052;-73
2022/09/28 11:06:37;;;;;;;5.10;4.80;;;;;;;13.54;87.60;99226.31;6067159;23;20030;-73
2022/09/28 11:09:25;;;;;;;9.68;4.90;;;;;;;12.91;90.44;99144.03;6142083;23;20035;-73
2022/09/28 11:11:58;;;;;;;4.60;4.40;;;;;;;12.30;91.03;99022.03;6114819;23;20021;-73
2022/09/28 11:14:36;;;;;;;5.22;4.93;;;;;;;13.66;91.86;99245.50;6137912;23;20078;-73
2022/09/28 11:17:39;;;;;;;5.28;5.00;;;;;;;13.90;90.97;99255.69;6119854;23;20092;-73
2022/09/28 11:20:24;;;;;;;5.68;5.38;;;;;;;14.05;88.29;99250.84;6120634;23;20032;-72
2022/09/28 11:22:56;;;;;;;5.20;4.90;;;;;;;13.79;86.97;99202.22;6118025;23;20026;-72
2022/09/28 11:25:25;;;;;;;5.00;4.80;;;;;;;14.16;86.10;99245.41;6092077;23;20240;-72
2022/09/28 11:27:51;;;;;;;5.22;4.97;;;;;;;14.08;85.90;99249.72;6145543;23;20021;-74
2022/09/28 11:30:25;;;;;;;4.80;4.60;;;;;;;14.16;87.19;99248.06;6093500;23;20072;-73
2022/09/28 11:33:09;;;;;;;5.07;4.88;;;;;;;13.49;87.66;99146.84;6147332;23;20009;-73
2022/09/28 11:36:04;;;;;;;5.00;4.78;;;;;;;14.15;87.86;99254.31;6118847;23;20025;-73
2022/09/28 11:38:54;;;;;;;5.10;4.80;;;;;;;14.32;86.97;99247.50;6061129;23;20034;-73
2022/09/28 11:41:47;;;;;;;4.97;4.75;;;;;;;14.28;84.01;99181.97;6150305;23;20013;-74
2022/09/28 11:44:19;;;;;;;6.28;5.10;;;;;;;14.52;82.52;99253.59;6092875;23;20021;-73
2022/09/28 11:47:10;;;;;;;5.22;4.93;;;;;;;14.16;84.81;99258.59;6151257;23;20062;-72
2022/09/28 11:49:43;;;;;;;5.13;4.82;;;;;;;13.41;86.83;99207.31;6123609;23;20021;-73
2022/09/28 11:52:31;;;;;;;5.30;5.00;;;;;;;13.44;90.28;99233.38;6151063;23;20078;-73
2022/09/28 11:55:13;;;;;;;5.00;4.80;;;;;;;13.29;88.47;99232.03;6115756;23;20037;-74
2022/09/28 11:57:44;;;;;;;4.97;4.78;;;;;;;13.62;89.11;99265.19;6125344;23;20086;-73
2022/09/28 12:00:18;;;;;;;4.90;4.70;;;;;;;13.63;87.85;99256.34;6122269;23;20010;-73
2022/09/28 12:02:58;;;;;;;5.22;4.93;;;;;;;13.93;87.04;99247.50;6146745;23;20057;-73
2022/09/28 12:05:40;;;;;;;5.13;4.82;;;;;;;14.28;86.49;99274.31;6124336;23;20020;-73
2022/09/28 12:08:13;;;;;;;5.30;5.00;;;;;;;14.56;85.00;99262.09;6150864;23;20017;-72
2022/09/28 12:10:56;;;;;;;4.63;4.43;;;;;;;14.43;83.24;99259.72;6122727;23;20098;-73
2022/09/28 12:13:27;;;;;;;6.95;5.00;;;;;;;14.19;84.28;99180.97;6093139;23;20028;-72